createdAt,value
2023-02-02T00:01:51.858Z,66.90
2023-02-02T00:04:25.510Z,66.90
2023-02-02T00:06:57.340Z,67.00
2023-02-02T00:09:29.164Z,67.00
2023-02-02T00:11:57.449Z,67.10
2023-02-02T00:14:25.089Z,67.20
2023-02-02T00:16:57.594Z,67.10
2023-02-02T00:19:31.767Z,67.40
2023-02-02T00:21:59.641Z,67.20
2023-02-02T00:24:26.797Z,67.40
2023-02-02T00:26:59.807Z,67.60
2023-02-02T00:29:30.891Z,67.40
2023-02-02T00:31:58.557Z,67.40
2023-02-02T00:34:26.084Z,67.60
2023-02-02T00:36:53.792Z,67.60
2023-02-02T00:39:27.605Z,67.70
2023-02-02T00:41:55.462Z,67.80
2023-02-02T00:44:41.850Z,67.80
2023-02-02T00:47:09.419Z,67.70
2023-02-02T00:49:36.716Z,67.80
2023-02-02T00:52:05.653Z,67.80
2023-02-02T00:54:32.787Z,67.80
2023-02-02T00:56:59.941Z,67.80
2023-02-02T00:59:27.219Z,67.90
2023-02-02T01:01:54.328Z,68.00
2023-02-02T01:04:21.544Z,68.10
2023-02-02T01:06:48.693Z,68.00
2023-02-02T01:09:15.907Z,68.10
2023-02-02T01:11:44.224Z,67.80
2023-02-02T01:14:11.446Z,67.80
2023-02-02T01:16:38.737Z,67.70
2023-02-02T01:19:05.800Z,67.80
2023-02-02T01:21:33.254Z,67.80
2023-02-02T01:24:00.659Z,67.70
2023-02-02T01:26:27.838Z,67.70
2023-02-02T01:28:54.926Z,67.70
2023-02-02T01:31:22.281Z,67.60
2023-02-02T01:33:50.479Z,67.60
2023-02-02T01:36:23.656Z,67.70
2023-02-02T01:38:51.888Z,67.50
2023-02-02T01:41:24.231Z,67.40
2023-02-02T01:43:55.958Z,67.50
2023-02-02T01:46:27.542Z,67.50
2023-02-02T01:49:01.307Z,67.80
2023-02-02T01:51:48.550Z,67.20
2023-02-02T01:54:24.502Z,67.20
2023-02-02T01:56:59.661Z,67.20
2023-02-02T01:59:28.963Z,67.20
2023-02-02T02:01:57.037Z,67.30
2023-02-02T02:04:26.831Z,67.40
2023-02-02T02:06:54.203Z,67.30
2023-02-02T02:09:22.195Z,67.40
2023-02-02T02:11:49.401Z,67.50
2023-02-02T02:14:35.846Z,67.50
2023-02-02T02:17:38.149Z,67.60
2023-02-02T02:20:51.303Z,67.80
2023-02-02T02:24:04.746Z,68.00
2023-02-02T02:27:03.985Z,68.20
2023-02-02T02:30:24.090Z,68.30
2023-02-02T02:33:04.300Z,69.00
2023-02-02T02:35:36.582Z,69.00
2023-02-02T02:38:26.290Z,69.60
2023-02-02T02:41:01.753Z,69.80
2023-02-02T02:43:35.463Z,70.20
2023-02-02T02:46:04.104Z,70.00
2023-02-02T02:48:32.359Z,70.00
2023-02-02T02:51:47.825Z,70.10
2023-02-02T02:54:43.299Z,70.40
2023-02-02T02:57:45.770Z,70.00
2023-02-02T03:00:24.718Z,70.20
2023-02-02T03:03:24.951Z,70.30
2023-02-02T03:06:00.934Z,70.70
2023-02-02T03:08:40.569Z,70.20
2023-02-02T03:11:10.976Z,70.00
2023-02-02T03:13:42.157Z,70.00
2023-02-02T03:16:12.106Z,70.20
2023-02-02T03:18:39.691Z,70.10
2023-02-02T03:21:08.572Z,70.20
2023-02-02T03:23:35.921Z,69.90
2023-02-02T03:26:03.173Z,69.90
2023-02-02T03:28:30.791Z,70.20
2023-02-02T03:31:01.337Z,70.10
2023-02-02T03:33:28.928Z,69.90
2023-02-02T03:35:55.982Z,69.90
2023-02-02T03:38:23.161Z,69.80
2023-02-02T03:40:52.584Z,70.10
2023-02-02T03:43:24.274Z,70.20
2023-02-02T03:45:58.952Z,70.00
2023-02-02T03:48:27.051Z,71.10
2023-02-02T03:50:54.828Z,70.30
2023-02-02T03:53:22.890Z,70.30
2023-02-02T03:55:50.290Z,70.30
2023-02-02T03:58:17.748Z,70.50
2023-02-02T04:00:45.004Z,70.60
2023-02-02T04:03:14.627Z,71.00
2023-02-02T04:05:46.725Z,71.10
2023-02-02T04:08:16.686Z,71.00
2023-02-02T04:10:43.855Z,71.40
2023-02-02T04:13:10.954Z,71.50
2023-02-02T04:15:37.987Z,71.60
2023-02-02T04:18:05.161Z,71.60
2023-02-02T04:20:32.391Z,71.50
2023-02-02T04:22:59.916Z,71.60
2023-02-02T04:25:27.481Z,71.70
2023-02-02T04:27:54.926Z,72.00
2023-02-02T04:30:24.720Z,71.80
2023-02-02T04:32:52.337Z,71.80
2023-02-02T04:35:19.579Z,71.50
2023-02-02T04:37:54.187Z,71.50
2023-02-02T04:40:21.374Z,71.60
2023-02-02T04:42:51.164Z,71.60
2023-02-02T04:45:21.374Z,71.60
2023-02-02T04:47:49.047Z,71.60
2023-02-02T04:50:16.685Z,71.50
2023-02-02T04:52:46.978Z,71.50
2023-02-02T04:55:14.297Z,71.80
2023-02-02T04:57:41.861Z,71.80
2023-02-02T05:00:11.548Z,72.00
2023-02-02T05:02:41.451Z,72.20
2023-02-02T05:05:15.452Z,72.10
2023-02-02T05:07:48.691Z,72.20
2023-02-02T05:10:15.935Z,72.20
2023-02-02T05:12:43.264Z,72.10
2023-02-02T05:15:11.205Z,72.30
2023-02-02T05:17:38.304Z,72.30
2023-02-02T05:20:05.781Z,72.80
2023-02-02T05:22:32.852Z,72.70
2023-02-02T05:24:59.947Z,73.20
2023-02-02T05:27:27.196Z,73.30
2023-02-02T05:30:00.560Z,72.80
2023-02-02T05:32:31.023Z,71.80
2023-02-02T05:34:58.267Z,71.20
2023-02-02T05:37:28.841Z,70.70
2023-02-02T05:39:56.090Z,70.50
2023-02-02T05:42:23.154Z,70.30
2023-02-02T05:44:54.610Z,70.10
2023-02-02T05:47:21.869Z,70.00
2023-02-02T05:49:50.186Z,70.00
2023-02-02T05:52:26.470Z,71.00
2023-02-02T05:54:59.961Z,71.20
2023-02-02T05:57:28.508Z,71.30
2023-02-02T05:59:55.707Z,72.20
2023-02-02T06:02:22.906Z,72.10
2023-02-02T06:04:50.195Z,72.30
2023-02-02T06:07:17.382Z,72.20
2023-02-02T06:09:44.480Z,72.70
2023-02-02T06:12:11.784Z,73.10
2023-02-02T06:14:38.886Z,72.90
2023-02-02T06:17:07.025Z,72.60
2023-02-02T06:19:34.399Z,72.70
2023-02-02T06:22:01.601Z,73.50
2023-02-02T06:24:28.699Z,73.30
2023-02-02T06:26:55.879Z,72.90
2023-02-02T06:29:23.162Z,72.60
2023-02-02T06:31:50.425Z,72.60
2023-02-02T06:34:17.712Z,72.60
2023-02-02T06:36:44.800Z,72.40
2023-02-02T06:39:12.465Z,72.20
2023-02-02T06:41:40.648Z,72.30
2023-02-02T06:44:08.147Z,72.10
2023-02-02T06:46:35.271Z,72.20
2023-02-02T06:49:02.502Z,71.90
2023-02-02T06:51:29.571Z,71.90
2023-02-02T06:53:59.509Z,72.10
2023-02-02T06:56:26.779Z,71.80
2023-02-02T06:58:59.807Z,71.70
2023-02-02T07:01:26.942Z,71.60
2023-02-02T07:03:54.147Z,71.60
2023-02-02T07:06:25.209Z,71.50
2023-02-02T07:08:57.631Z,71.30
2023-02-02T07:11:37.588Z,71.30
2023-02-02T07:14:10.058Z,71.20
2023-02-02T07:16:37.312Z,71.20
2023-02-02T07:19:04.586Z,71.10
2023-02-02T07:21:36.227Z,71.10
2023-02-02T07:24:05.840Z,71.10
2023-02-02T07:26:36.013Z,71.10
2023-02-02T07:29:04.652Z,71.00
2023-02-02T07:31:33.549Z,71.00
2023-02-02T07:34:02.900Z,71.10
2023-02-02T07:36:30.080Z,71.10
2023-02-02T07:39:02.641Z,71.20
2023-02-02T07:41:29.890Z,71.20
2023-02-02T07:43:57.160Z,71.20
2023-02-02T07:46:24.454Z,71.10
2023-02-02T07:48:55.812Z,71.20
2023-02-02T07:51:24.583Z,71.10
2023-02-02T07:53:54.139Z,71.20
2023-02-02T07:56:25.801Z,71.20
2023-02-02T07:58:55.132Z,71.20
2023-02-02T08:01:23.547Z,71.20
2023-02-02T08:03:51.474Z,71.20
2023-02-02T08:06:25.151Z,71.20
2023-02-02T08:08:52.725Z,71.20
2023-02-02T08:11:22.093Z,71.20
2023-02-02T08:13:54.712Z,71.20
2023-02-02T08:16:23.057Z,71.20
2023-02-02T08:18:50.962Z,71.30
2023-02-02T08:21:18.906Z,71.30
2023-02-02T08:23:46.301Z,71.40
2023-02-02T08:26:17.966Z,71.40
2023-02-02T08:28:47.205Z,71.40
2023-02-02T08:31:23.292Z,72.10
2023-02-02T08:33:51.748Z,71.20
2023-02-02T08:36:21.635Z,71.20
2023-02-02T08:38:49.260Z,71.30
2023-02-02T08:41:20.305Z,71.40
2023-02-02T08:43:47.821Z,71.50
2023-02-02T08:46:17.739Z,71.50
2023-02-02T08:48:45.533Z,71.50
2023-02-02T08:51:16.134Z,71.60
2023-02-02T08:53:43.499Z,71.60
2023-02-02T08:56:22.118Z,71.60
2023-02-02T08:58:55.322Z,71.70
2023-02-02T09:01:28.947Z,71.60
2023-02-02T09:03:59.233Z,71.50
2023-02-02T09:06:33.996Z,71.60
2023-02-02T09:09:01.597Z,71.60
2023-02-02T09:11:29.977Z,71.60
2023-02-02T09:13:59.299Z,71.60
2023-02-02T09:16:27.878Z,71.60
2023-02-02T09:18:56.670Z,71.70
2023-02-02T09:21:24.331Z,71.70
2023-02-02T09:23:53.806Z,71.90
2023-02-02T09:26:29.704Z,71.80
2023-02-02T09:29:03.323Z,71.90
2023-02-02T09:31:35.008Z,71.90
2023-02-02T09:34:20.116Z,71.80
2023-02-02T09:36:47.961Z,72.10
2023-02-02T09:39:16.716Z,71.70
2023-02-02T09:42:10.079Z,71.70
2023-02-02T09:44:54.535Z,71.70
2023-02-02T09:47:42.329Z,71.70
2023-02-02T09:50:20.454Z,71.70
2023-02-02T09:52:59.123Z,71.70
2023-02-02T09:55:48.693Z,71.70
2023-02-02T09:58:42.191Z,72.10
2023-02-02T10:01:16.116Z,71.90
2023-02-02T10:04:01.445Z,71.80
2023-02-02T10:06:53.202Z,71.80
2023-02-02T10:09:59.101Z,72.30
2023-02-02T10:12:37.251Z,72.20
2023-02-02T10:15:37.644Z,71.90
2023-02-02T10:18:34.794Z,72.20
2023-02-02T10:21:05.200Z,72.00
2023-02-02T10:23:54.753Z,72.00
2023-02-02T10:26:36.723Z,72.50
2023-02-02T10:29:22.139Z,72.20
2023-02-02T10:32:28.520Z,72.40
2023-02-02T10:35:31.153Z,72.20
2023-02-02T10:38:25.522Z,72.30
2023-02-02T10:41:02.720Z,72.40
2023-02-02T10:44:18.793Z,72.20
2023-02-02T10:46:56.581Z,72.30
2023-02-02T10:49:32.904Z,72.20
2023-02-02T10:52:14.149Z,72.30
2023-02-02T10:55:04.927Z,72.20
2023-02-02T10:58:05.038Z,72.20
2023-02-02T11:00:52.464Z,72.20
2023-02-02T11:03:23.824Z,72.30
2023-02-02T11:06:09.737Z,72.10
2023-02-02T11:08:47.850Z,72.20
2023-02-02T11:11:35.454Z,72.20
2023-02-02T11:14:08.485Z,72.20
2023-02-02T11:16:44.625Z,72.30
2023-02-02T11:19:18.183Z,72.30
2023-02-02T11:21:51.840Z,72.30
2023-02-02T11:24:28.246Z,72.40
2023-02-02T11:27:12.646Z,72.30
2023-02-02T11:29:39.998Z,72.40
2023-02-02T11:32:25.744Z,72.20
2023-02-02T11:35:08.306Z,72.50
2023-02-02T11:37:38.351Z,72.30
2023-02-02T11:40:28.916Z,72.20
2023-02-02T11:43:03.322Z,72.40
2023-02-02T11:45:34.433Z,72.10
2023-02-02T11:48:17.781Z,72.10
2023-02-02T11:50:54.431Z,72.40
2023-02-02T11:53:29.347Z,72.10
2023-02-02T11:56:02.087Z,72.00
2023-02-02T11:58:43.859Z,72.10
2023-02-02T12:01:22.453Z,72.10
2023-02-02T12:03:50.162Z,72.90
2023-02-02T12:06:22.825Z,71.90
2023-02-02T12:08:50.507Z,72.00
2023-02-02T12:11:56.617Z,72.10
2023-02-02T12:15:01.088Z,72.40
2023-02-02T12:17:43.133Z,72.50
2023-02-02T12:20:53.503Z,72.20
2023-02-02T12:23:33.790Z,72.60
2023-02-02T12:26:42.466Z,72.30
2023-02-02T12:29:12.195Z,72.40
2023-02-02T12:31:45.876Z,72.20
2023-02-02T12:34:24.939Z,72.20
2023-02-02T12:37:48.619Z,72.30
2023-02-02T12:40:58.758Z,72.70
2023-02-02T12:43:42.482Z,72.10
2023-02-02T12:46:27.243Z,72.20
2023-02-02T12:49:23.159Z,72.30
2023-02-02T12:52:17.419Z,72.10
2023-02-02T12:55:25.247Z,72.20
2023-02-02T12:58:28.285Z,72.10
2023-02-02T13:01:14.277Z,72.30
2023-02-02T13:04:28.450Z,71.90
2023-02-02T13:07:32.761Z,72.40
2023-02-02T13:10:27.905Z,71.80
2023-02-02T13:13:09.221Z,71.90
2023-02-02T13:15:47.917Z,71.80
2023-02-02T13:18:34.823Z,71.80
2023-02-02T13:21:02.488Z,71.80
2023-02-02T13:23:37.066Z,71.70
2023-02-02T13:26:28.471Z,71.70
2023-02-02T13:29:30.526Z,72.10
2023-02-02T13:32:05.772Z,72.20
2023-02-02T13:34:50.225Z,71.70
2023-02-02T13:37:54.183Z,71.80
2023-02-02T13:40:34.512Z,72.10
2023-02-02T13:43:35.788Z,71.70
2023-02-02T13:46:13.969Z,72.10
2023-02-02T13:49:20.269Z,71.80
2023-02-02T13:52:12.595Z,72.90
2023-02-02T13:55:16.224Z,73.50
2023-02-02T13:58:20.375Z,74.90
2023-02-02T14:00:54.694Z,76.70
2023-02-02T14:03:40.615Z,77.10
2023-02-02T14:06:23.693Z,77.00
2023-02-02T14:09:06.017Z,77.60
2023-02-02T14:11:42.770Z,77.50
2023-02-02T14:14:33.334Z,77.30
2023-02-02T14:17:06.829Z,77.20
2023-02-02T14:19:33.832Z,76.90
2023-02-02T14:22:14.337Z,76.70
2023-02-02T14:24:50.278Z,76.30
2023-02-02T14:27:17.816Z,76.50
2023-02-02T14:29:46.751Z,77.00
2023-02-02T14:32:29.365Z,76.70
2023-02-02T14:35:14.407Z,76.50
2023-02-02T14:38:29.204Z,76.50
2023-02-02T14:41:05.439Z,76.60
2023-02-02T14:43:51.094Z,76.40
2023-02-02T14:46:49.393Z,76.90
2023-02-02T14:49:24.728Z,76.80
2023-02-02T14:51:56.364Z,76.90
2023-02-02T14:54:27.494Z,76.80
2023-02-02T14:57:00.456Z,78.40
2023-02-02T14:59:38.586Z,76.70
2023-02-02T15:02:32.879Z,77.00
2023-02-02T15:05:33.485Z,77.70
2023-02-02T15:08:25.280Z,77.10
2023-02-02T15:10:56.740Z,77.00
2023-02-02T15:13:37.749Z,76.50
2023-02-02T15:16:23.725Z,77.30
2023-02-02T15:19:04.646Z,77.20
2023-02-02T15:21:34.826Z,77.20
2023-02-02T15:24:02.092Z,77.10
2023-02-02T15:26:40.018Z,77.20
2023-02-02T15:29:45.517Z,77.40
2023-02-02T15:32:20.609Z,78.10
2023-02-02T15:35:16.937Z,77.50
2023-02-02T15:37:52.172Z,77.20
2023-02-02T15:40:25.380Z,77.40
2023-02-02T15:43:08.524Z,77.30
2023-02-02T15:45:48.641Z,77.50
2023-02-02T15:48:30.781Z,77.20
2023-02-02T15:51:03.877Z,77.10
2023-02-02T15:53:51.760Z,77.20
2023-02-02T15:56:32.413Z,77.80
2023-02-02T15:59:00.629Z,77.40
2023-02-02T16:01:32.868Z,77.40
2023-02-02T16:04:20.247Z,77.40
2023-02-02T16:06:48.398Z,77.60
2023-02-02T16:09:25.805Z,77.40
2023-02-02T16:11:53.652Z,77.30
2023-02-02T16:14:21.491Z,77.40
2023-02-02T16:16:51.808Z,77.60
2023-02-02T16:19:25.152Z,77.80
2023-02-02T16:22:01.786Z,77.90
2023-02-02T16:24:31.699Z,77.80
2023-02-02T16:27:01.649Z,77.90
2023-02-02T16:29:29.722Z,78.00
2023-02-02T16:31:58.498Z,77.40
2023-02-02T16:34:40.893Z,76.50
2023-02-02T16:37:22.567Z,75.90
2023-02-02T16:39:50.152Z,75.20
2023-02-02T16:42:31.812Z,74.70
2023-02-02T16:45:01.487Z,74.30
2023-02-02T16:47:29.408Z,74.00
2023-02-02T16:50:30.563Z,73.80
2023-02-02T16:53:05.658Z,73.80
2023-02-02T16:55:49.354Z,73.60
2023-02-02T16:58:22.201Z,73.60
2023-02-02T17:01:14.893Z,73.60
2023-02-02T17:03:52.692Z,73.90
2023-02-02T17:06:35.763Z,73.90
2023-02-02T17:09:17.341Z,73.90
2023-02-02T17:12:09.357Z,74.10
2023-02-02T17:15:01.736Z,74.20
2023-02-02T17:17:28.817Z,74.20
2023-02-02T17:19:55.929Z,74.10
2023-02-02T17:22:25.610Z,74.30
2023-02-02T17:24:53.179Z,74.30
2023-02-02T17:27:34.126Z,74.50
2023-02-02T17:30:02.378Z,74.50
2023-02-02T17:32:29.469Z,74.40
2023-02-02T17:34:56.811Z,74.40
2023-02-02T17:37:25.282Z,74.50
2023-02-02T17:39:55.259Z,74.40
2023-02-02T17:42:28.164Z,74.50
2023-02-02T17:44:55.281Z,74.40
2023-02-02T17:47:22.403Z,74.40
2023-02-02T17:49:49.470Z,74.40
2023-02-02T17:52:16.825Z,74.30
2023-02-02T17:54:43.855Z,74.30
2023-02-02T17:57:10.912Z,74.30
2023-02-02T17:59:37.949Z,74.30
2023-02-02T18:02:05.009Z,74.20
2023-02-02T18:04:32.142Z,74.20
2023-02-02T18:06:59.264Z,74.20
2023-02-02T18:09:26.527Z,74.20
2023-02-02T18:11:53.585Z,74.20
2023-02-02T18:14:20.707Z,74.00
2023-02-02T18:16:47.732Z,74.00
2023-02-02T18:19:14.853Z,73.90
2023-02-02T18:21:42.184Z,73.90
2023-02-02T18:24:15.162Z,74.00
2023-02-02T18:26:42.363Z,74.10
2023-02-02T18:29:09.453Z,74.00
2023-02-02T18:31:36.563Z,74.00
2023-02-02T18:34:03.651Z,74.00
2023-02-02T18:36:30.764Z,74.00
2023-02-02T18:38:58.181Z,74.10
2023-02-02T18:41:25.467Z,74.00
2023-02-02T18:43:55.062Z,74.00
2023-02-02T18:46:22.367Z,74.00
2023-02-02T18:48:49.683Z,74.00
2023-02-02T18:51:18.886Z,74.00
2023-02-02T18:53:47.200Z,73.90
2023-02-02T18:56:15.407Z,73.90
2023-02-02T18:58:42.513Z,73.90
2023-02-02T19:01:15.463Z,74.00
2023-02-02T19:03:43.357Z,74.00
2023-02-02T19:06:28.657Z,73.90
2023-02-02T19:08:55.754Z,73.90
2023-02-02T19:11:26.793Z,73.90
2023-02-02T19:13:54.288Z,73.90
2023-02-02T19:16:28.822Z,73.90
2023-02-02T19:19:12.247Z,73.90
2023-02-02T19:21:42.132Z,74.20
2023-02-02T19:24:15.182Z,73.90
2023-02-02T19:26:47.059Z,73.90
2023-02-02T19:29:20.825Z,73.90
2023-02-02T19:32:07.563Z,73.90
2023-02-02T19:34:34.873Z,73.90
2023-02-02T19:37:30.536Z,73.90
2023-02-02T19:40:09.493Z,74.30
2023-02-02T19:42:44.024Z,73.90
2023-02-02T19:45:34.225Z,73.90
2023-02-02T19:48:14.551Z,74.10
2023-02-02T19:50:42.169Z,73.90
2023-02-02T19:53:30.539Z,74.00
2023-02-02T19:55:57.691Z,74.20
2023-02-02T19:58:30.991Z,74.20
2023-02-02T20:01:15.784Z,74.10
2023-02-02T20:03:45.509Z,74.20
2023-02-02T20:06:25.453Z,74.20
2023-02-02T20:08:53.363Z,74.30
2023-02-02T20:11:32.019Z,74.20
2023-02-02T20:14:01.262Z,74.30
2023-02-02T20:16:41.480Z,74.30
2023-02-02T20:19:27.228Z,74.40
2023-02-02T20:21:55.256Z,74.40
2023-02-02T20:24:37.812Z,74.40
2023-02-02T20:27:23.675Z,74.30
2023-02-02T20:29:54.118Z,74.50
2023-02-02T20:32:30.421Z,74.30
2023-02-02T20:34:59.219Z,74.30
2023-02-02T20:37:30.525Z,74.40
2023-02-02T20:40:08.104Z,74.40
2023-02-02T20:42:35.270Z,74.40
2023-02-02T20:45:02.442Z,74.50
2023-02-02T20:47:30.143Z,74.50
2023-02-02T20:50:01.589Z,74.50
2023-02-02T20:52:31.255Z,74.50
2023-02-02T20:54:58.520Z,74.50
2023-02-02T20:57:25.672Z,74.60
2023-02-02T20:59:57.648Z,74.70
2023-02-02T21:02:26.654Z,74.70
2023-02-02T21:04:54.407Z,74.60
2023-02-02T21:07:23.300Z,74.70
2023-02-02T21:09:51.394Z,74.70
2023-02-02T21:12:18.869Z,74.70
2023-02-02T21:14:46.327Z,74.80
2023-02-02T21:17:15.649Z,74.70
2023-02-02T21:19:44.026Z,74.70
2023-02-02T21:22:12.466Z,74.80
2023-02-02T21:24:40.037Z,74.80
2023-02-02T21:27:07.853Z,74.70
2023-02-02T21:29:35.333Z,74.80
2023-02-02T21:32:04.618Z,74.90
2023-02-02T21:34:32.425Z,74.80
2023-02-02T21:36:59.876Z,74.80
2023-02-02T21:39:35.021Z,74.80
2023-02-02T21:42:07.961Z,74.80
2023-02-02T21:44:43.721Z,74.80
2023-02-02T21:47:37.367Z,74.80
2023-02-02T21:50:29.404Z,75.00
2023-02-02T21:53:26.167Z,74.90
2023-02-02T21:56:00.621Z,75.00
2023-02-02T21:58:34.455Z,74.80
2023-02-02T22:01:24.259Z,74.80
2023-02-02T22:03:51.942Z,74.90
2023-02-02T22:06:29.243Z,74.70
2023-02-02T22:09:18.822Z,74.70
2023-02-02T22:12:02.246Z,74.90
2023-02-02T22:14:38.895Z,74.70
2023-02-02T22:17:40.906Z,74.80
2023-02-02T22:20:17.517Z,75.00
2023-02-02T22:22:47.529Z,75.50
2023-02-02T22:25:24.156Z,74.50
2023-02-02T22:27:54.867Z,74.60
2023-02-02T22:30:36.949Z,74.70
2023-02-02T22:33:06.518Z,74.70
2023-02-02T22:35:34.563Z,74.70
2023-02-02T22:38:02.644Z,74.80
2023-02-02T22:40:30.889Z,74.90
2023-02-02T22:43:01.855Z,74.80
2023-02-02T22:45:29.013Z,74.80
2023-02-02T22:47:56.229Z,74.90
2023-02-02T22:50:27.712Z,74.90
2023-02-02T22:52:54.906Z,75.00
2023-02-02T22:55:22.822Z,75.60
2023-02-02T22:57:50.281Z,74.60
2023-02-02T23:00:29.901Z,74.70
2023-02-02T23:02:57.646Z,74.90
2023-02-02T23:05:26.584Z,74.80
2023-02-02T23:07:54.374Z,74.90
2023-02-02T23:10:26.952Z,74.90
2023-02-02T23:12:58.497Z,74.90
2023-02-02T23:15:26.329Z,74.90
2023-02-02T23:17:54.116Z,74.90
2023-02-02T23:20:21.743Z,74.90
2023-02-02T23:22:49.252Z,74.90
2023-02-02T23:25:18.938Z,74.90
2023-02-02T23:27:46.369Z,75.00
2023-02-02T23:30:15.141Z,75.00
2023-02-02T23:32:42.859Z,74.90
2023-02-02T23:35:10.870Z,74.90
2023-02-02T23:37:38.905Z,74.90
2023-02-02T23:40:07.133Z,74.90
2023-02-02T23:42:34.584Z,74.90
2023-02-02T23:45:01.705Z,75.10
2023-02-02T23:47:28.900Z,75.10
2023-02-02T23:49:56.343Z,75.30
2023-02-02T23:52:23.945Z,75.50
2023-02-02T23:54:52.898Z,75.90
2023-02-02T23:57:20.884Z,76.30
2023-02-02T23:59:47.963Z,76.60
